sensor_id;sensor_type;location;lat;lon;timestamp;P1;durP1;ratioP1;P2;durP2;ratioP2
9465;SDS011;4771;48.726;9.006;2024-02-28T00:01:02;15.53;;;12.10;;
9465;SDS011;4771;48.726;9.006;2024-02-28T00:03:29;16.52;;;11.80;;
9465;SDS011;4771;48.726;9.006;2024-02-28T00:05:57;16.70;;;12.27;;
9465;SDS011;4771;48.726;9.006;2024-02-28T00:08:23;18.23;;;11.50;;
9465;SDS011;4771;48.726;9.006;2024-02-28T00:10:50;20.07;;;12.30;;
9465;SDS011;4771;48.726;9.006;2024-02-28T00:13:17;17.27;;;12.17;;
9465;SDS011;4771;48.726;9.006;2024-02-28T00:15:46;17.67;;;11.80;;
9465;SDS011;4771;48.726;9.006;2024-02-28T00:18:13;17.73;;;12.27;;
9465;SDS011;4771;48.726;9.006;2024-02-28T00:20:40;16.93;;;11.63;;
9465;SDS011;4771;48.726;9.006;2024-02-28T00:23:07;17.80;;;12.47;;
9465;SDS011;4771;48.726;9.006;2024-02-28T00:25:34;18.40;;;12.67;;
9465;SDS011;4771;48.726;9.006;2024-02-28T00:28:01;17.93;;;12.80;;
9465;SDS011;4771;48.726;9.006;2024-02-28T00:30:28;17.43;;;12.10;;
9465;SDS011;4771;48.726;9.006;2024-02-28T00:32:56;20.47;;;12.87;;
9465;SDS011;4771;48.726;9.006;2024-02-28T00:35:23;18.47;;;12.27;;
9465;SDS011;4771;48.726;9.006;2024-02-28T00:37:50;15.53;;;11.80;;
9465;SDS011;4771;48.726;9.006;2024-02-28T00:40:17;17.60;;;11.63;;
9465;SDS011;4771;48.726;9.006;2024-02-28T00:42:44;16.93;;;11.20;;
9465;SDS011;4771;48.726;9.006;2024-02-28T00:45:11;16.27;;;11.53;;
9465;SDS011;4771;48.726;9.006;2024-02-28T00:47:38;16.37;;;11.80;;
9465;SDS011;4771;48.726;9.006;2024-02-28T00:50:07;17.10;;;11.70;;
9465;SDS011;4771;48.726;9.006;2024-02-28T00:52:34;15.57;;;11.53;;
9465;SDS011;4771;48.726;9.006;2024-02-28T00:55:01;15.97;;;11.13;;
9465;SDS011;4771;48.726;9.006;2024-02-28T00:57:30;15.83;;;10.63;;
9465;SDS011;4771;48.726;9.006;2024-02-28T00:59:57;13.90;;;10.20;;
9465;SDS011;4771;48.726;9.006;2024-02-28T01:02:23;14.13;;;10.17;;
9465;SDS011;4771;48.726;9.006;2024-02-28T01:04:50;18.30;;;11.23;;
9465;SDS011;4771;48.726;9.006;2024-02-28T01:07:19;18.00;;;11.43;;
9465;SDS011;4771;48.726;9.006;2024-02-28T01:09:45;15.90;;;11.77;;
9465;SDS011;4771;48.726;9.006;2024-02-28T01:12:12;18.93;;;11.97;;
9465;SDS011;4771;48.726;9.006;2024-02-28T01:14:39;16.23;;;11.93;;
9465;SDS011;4771;48.726;9.006;2024-02-28T01:17:06;20.93;;;12.30;;
9465;SDS011;4771;48.726;9.006;2024-02-28T01:19:33;16.47;;;11.73;;
9465;SDS011;4771;48.726;9.006;2024-02-28T01:22:00;19.50;;;11.93;;
9465;SDS011;4771;48.726;9.006;2024-02-28T01:24:28;17.33;;;12.20;;
9465;SDS011;4771;48.726;9.006;2024-02-28T01:26:55;18.40;;;12.23;;
9465;SDS011;4771;48.726;9.006;2024-02-28T01:29:22;17.80;;;11.80;;
9465;SDS011;4771;48.726;9.006;2024-02-28T01:31:49;16.27;;;11.77;;
9465;SDS011;4771;48.726;9.006;2024-02-28T01:34:16;17.73;;;12.13;;
9465;SDS011;4771;48.726;9.006;2024-02-28T01:36:43;19.67;;;13.03;;
9465;SDS011;4771;48.726;9.006;2024-02-28T01:39:10;15.53;;;11.67;;
9465;SDS011;4771;48.726;9.006;2024-02-28T01:41:38;19.33;;;12.20;;
9465;SDS011;4771;48.726;9.006;2024-02-28T01:44:08;17.13;;;12.27;;
9465;SDS011;4771;48.726;9.006;2024-02-28T01:46:35;18.27;;;12.57;;
9465;SDS011;4771;48.726;9.006;2024-02-28T01:49:02;15.67;;;11.33;;
9465;SDS011;4771;48.726;9.006;2024-02-28T01:51:29;20.73;;;12.70;;
9465;SDS011;4771;48.726;9.006;2024-02-28T01:53:56;18.90;;;12.73;;
9465;SDS011;4771;48.726;9.006;2024-02-28T01:56:23;20.40;;;13.07;;
9465;SDS011;4771;48.726;9.006;2024-02-28T01:58:52;18.00;;;12.87;;
9465;SDS011;4771;48.726;9.006;2024-02-28T02:01:21;20.17;;;13.07;;
9465;SDS011;4771;48.726;9.006;2024-02-28T02:03:48;17.63;;;12.40;;
9465;SDS011;4771;48.726;9.006;2024-02-28T02:06:15;21.53;;;12.97;;
9465;SDS011;4771;48.726;9.006;2024-02-28T02:08:42;16.73;;;11.73;;
9465;SDS011;4771;48.726;9.006;2024-02-28T02:11:09;18.73;;;13.13;;
9465;SDS011;4771;48.726;9.006;2024-02-28T02:13:36;18.47;;;12.43;;
9465;SDS011;4771;48.726;9.006;2024-02-28T02:16:15;20.40;;;12.33;;
9465;SDS011;4771;48.726;9.006;2024-02-28T02:18:42;18.97;;;12.93;;
9465;SDS011;4771;48.726;9.006;2024-02-28T02:21:09;17.00;;;12.67;;
9465;SDS011;4771;48.726;9.006;2024-02-28T02:23:40;18.27;;;12.60;;
9465;SDS011;4771;48.726;9.006;2024-02-28T02:26:07;18.90;;;13.00;;
9465;SDS011;4771;48.726;9.006;2024-02-28T02:28:34;19.90;;;12.50;;
9465;SDS011;4771;48.726;9.006;2024-02-28T02:31:01;18.07;;;12.07;;
9465;SDS011;4771;48.726;9.006;2024-02-28T02:33:28;18.53;;;12.63;;
9465;SDS011;4771;48.726;9.006;2024-02-28T02:35:55;16.90;;;11.60;;
9465;SDS011;4771;48.726;9.006;2024-02-28T02:38:21;17.07;;;12.20;;
9465;SDS011;4771;48.726;9.006;2024-02-28T02:40:50;18.23;;;12.83;;
9465;SDS011;4771;48.726;9.006;2024-02-28T02:43:17;19.03;;;12.33;;
9465;SDS011;4771;48.726;9.006;2024-02-28T02:45:44;16.47;;;11.93;;
9465;SDS011;4771;48.726;9.006;2024-02-28T02:48:11;15.67;;;11.83;;
9465;SDS011;4771;48.726;9.006;2024-02-28T02:50:38;18.07;;;12.17;;
9465;SDS011;4771;48.726;9.006;2024-02-28T02:53:06;17.47;;;11.83;;
9465;SDS011;4771;48.726;9.006;2024-02-28T02:55:35;16.13;;;11.50;;
9465;SDS011;4771;48.726;9.006;2024-02-28T02:58:04;17.57;;;11.77;;
9465;SDS011;4771;48.726;9.006;2024-02-28T03:00:31;19.70;;;12.43;;
9465;SDS011;4771;48.726;9.006;2024-02-28T03:02:57;15.53;;;11.43;;
9465;SDS011;4771;48.726;9.006;2024-02-28T03:05:24;16.73;;;12.43;;
9465;SDS011;4771;48.726;9.006;2024-02-28T03:07:51;17.93;;;11.97;;
9465;SDS011;4771;48.726;9.006;2024-02-28T03:10:18;17.27;;;11.93;;
9465;SDS011;4771;48.726;9.006;2024-02-28T03:12:45;16.93;;;11.40;;
9465;SDS011;4771;48.726;9.006;2024-02-28T03:15:13;17.87;;;12.20;;
9465;SDS011;4771;48.726;9.006;2024-02-28T03:17:41;21.10;;;12.60;;
9465;SDS011;4771;48.726;9.006;2024-02-28T03:20:08;16.03;;;11.73;;
9465;SDS011;4771;48.726;9.006;2024-02-28T03:22:37;15.63;;;11.67;;
9465;SDS011;4771;48.726;9.006;2024-02-28T03:25:04;20.27;;;13.20;;
9465;SDS011;4771;48.726;9.006;2024-02-28T03:27:31;17.00;;;12.27;;
9465;SDS011;4771;48.726;9.006;2024-02-28T03:29:58;20.03;;;12.97;;
9465;SDS011;4771;48.726;9.006;2024-02-28T03:32:26;16.83;;;12.40;;
9465;SDS011;4771;48.726;9.006;2024-02-28T03:34:53;19.27;;;12.33;;
9465;SDS011;4771;48.726;9.006;2024-02-28T03:37:20;18.13;;;12.90;;
9465;SDS011;4771;48.726;9.006;2024-02-28T03:39:47;17.00;;;12.57;;
9465;SDS011;4771;48.726;9.006;2024-02-28T03:42:14;17.47;;;12.23;;
9465;SDS011;4771;48.726;9.006;2024-02-28T03:44:41;17.90;;;12.10;;
9465;SDS011;4771;48.726;9.006;2024-02-28T03:47:08;18.10;;;12.47;;
9465;SDS011;4771;48.726;9.006;2024-02-28T03:49:36;16.93;;;11.93;;
9465;SDS011;4771;48.726;9.006;2024-02-28T03:52:03;18.53;;;11.93;;
9465;SDS011;4771;48.726;9.006;2024-02-28T03:54:31;18.63;;;12.03;;
9465;SDS011;4771;48.726;9.006;2024-02-28T03:56:58;19.63;;;13.10;;
9465;SDS011;4771;48.726;9.006;2024-02-28T03:59:25;16.50;;;11.90;;
9465;SDS011;4771;48.726;9.006;2024-02-28T04:01:51;16.53;;;11.47;;
9465;SDS011;4771;48.726;9.006;2024-02-28T04:04:18;19.60;;;12.90;;
9465;SDS011;4771;48.726;9.006;2024-02-28T04:06:46;17.47;;;12.67;;
9465;SDS011;4771;48.726;9.006;2024-02-28T04:09:13;17.07;;;12.03;;
9465;SDS011;4771;48.726;9.006;2024-02-28T04:11:40;16.50;;;12.13;;
9465;SDS011;4771;48.726;9.006;2024-02-28T04:14:08;16.60;;;12.93;;
9465;SDS011;4771;48.726;9.006;2024-02-28T04:16:34;17.43;;;12.13;;
9465;SDS011;4771;48.726;9.006;2024-02-28T04:19:08;17.13;;;12.37;;
9465;SDS011;4771;48.726;9.006;2024-02-28T04:21:35;19.67;;;12.27;;
9465;SDS011;4771;48.726;9.006;2024-02-28T04:24:04;18.80;;;13.37;;
9465;SDS011;4771;48.726;9.006;2024-02-28T04:26:32;19.10;;;13.13;;
9465;SDS011;4771;48.726;9.006;2024-02-28T04:28:58;18.27;;;12.10;;
9465;SDS011;4771;48.726;9.006;2024-02-28T04:31:28;18.17;;;12.07;;
9465;SDS011;4771;48.726;9.006;2024-02-28T04:33:54;16.90;;;11.73;;
9465;SDS011;4771;48.726;9.006;2024-02-28T04:36:21;18.37;;;12.40;;
9465;SDS011;4771;48.726;9.006;2024-02-28T04:38:48;19.87;;;12.67;;
9465;SDS011;4771;48.726;9.006;2024-02-28T04:41:16;17.57;;;12.77;;
9465;SDS011;4771;48.726;9.006;2024-02-28T04:43:43;18.17;;;12.80;;
9465;SDS011;4771;48.726;9.006;2024-02-28T04:46:10;18.17;;;13.23;;
9465;SDS011;4771;48.726;9.006;2024-02-28T04:48:37;18.03;;;13.13;;
9465;SDS011;4771;48.726;9.006;2024-02-28T04:51:04;18.27;;;13.17;;
9465;SDS011;4771;48.726;9.006;2024-02-28T04:53:30;18.57;;;12.70;;
9465;SDS011;4771;48.726;9.006;2024-02-28T04:55:57;17.83;;;12.67;;
9465;SDS011;4771;48.726;9.006;2024-02-28T04:58:25;18.47;;;12.90;;
9465;SDS011;4771;48.726;9.006;2024-02-28T05:00:52;20.30;;;13.47;;
9465;SDS011;4771;48.726;9.006;2024-02-28T05:03:19;15.87;;;11.70;;
9465;SDS011;4771;48.726;9.006;2024-02-28T05:05:47;19.60;;;12.43;;
9465;SDS011;4771;48.726;9.006;2024-02-28T05:08:14;18.33;;;13.07;;
9465;SDS011;4771;48.726;9.006;2024-02-28T05:10:41;20.47;;;12.43;;
9465;SDS011;4771;48.726;9.006;2024-02-28T05:13:08;17.63;;;12.10;;
9465;SDS011;4771;48.726;9.006;2024-02-28T05:15:36;18.13;;;12.10;;
9465;SDS011;4771;48.726;9.006;2024-02-28T05:18:03;17.70;;;12.27;;
9465;SDS011;4771;48.726;9.006;2024-02-28T05:20:30;16.87;;;12.00;;
9465;SDS011;4771;48.726;9.006;2024-02-28T05:22:57;18.93;;;12.60;;
9465;SDS011;4771;48.726;9.006;2024-02-28T05:25:24;18.33;;;13.00;;
9465;SDS011;4771;48.726;9.006;2024-02-28T05:27:51;15.87;;;12.40;;
9465;SDS011;4771;48.726;9.006;2024-02-28T05:30:18;19.30;;;12.87;;
9465;SDS011;4771;48.726;9.006;2024-02-28T05:32:46;17.17;;;12.67;;
9465;SDS011;4771;48.726;9.006;2024-02-28T05:35:13;17.40;;;12.73;;
9465;SDS011;4771;48.726;9.006;2024-02-28T05:37:40;18.27;;;13.23;;
9465;SDS011;4771;48.726;9.006;2024-02-28T05:40:07;19.13;;;13.17;;
9465;SDS011;4771;48.726;9.006;2024-02-28T05:42:37;20.93;;;12.93;;
9465;SDS011;4771;48.726;9.006;2024-02-28T05:45:05;16.77;;;12.33;;
9465;SDS011;4771;48.726;9.006;2024-02-28T05:47:32;20.67;;;12.93;;
9465;SDS011;4771;48.726;9.006;2024-02-28T05:50:00;19.40;;;13.00;;
9465;SDS011;4771;48.726;9.006;2024-02-28T05:52:27;19.20;;;12.50;;
9465;SDS011;4771;48.726;9.006;2024-02-28T05:54:54;20.43;;;12.63;;
9465;SDS011;4771;48.726;9.006;2024-02-28T05:57:21;17.20;;;12.80;;
9465;SDS011;4771;48.726;9.006;2024-02-28T05:59:48;19.00;;;12.73;;
9465;SDS011;4771;48.726;9.006;2024-02-28T06:02:15;15.83;;;11.63;;
9465;SDS011;4771;48.726;9.006;2024-02-28T06:04:42;18.67;;;12.53;;
9465;SDS011;4771;48.726;9.006;2024-02-28T06:07:10;17.43;;;12.60;;
9465;SDS011;4771;48.726;9.006;2024-02-28T06:09:37;16.33;;;12.53;;
9465;SDS011;4771;48.726;9.006;2024-02-28T06:12:04;17.83;;;12.73;;
9465;SDS011;4771;48.726;9.006;2024-02-28T06:14:31;18.10;;;13.17;;
9465;SDS011;4771;48.726;9.006;2024-02-28T06:16:58;16.40;;;12.43;;
9465;SDS011;4771;48.726;9.006;2024-02-28T06:19:25;17.30;;;12.10;;
9465;SDS011;4771;48.726;9.006;2024-02-28T06:21:52;19.83;;;12.50;;
9465;SDS011;4771;48.726;9.006;2024-02-28T06:24:20;18.57;;;12.43;;
9465;SDS011;4771;48.726;9.006;2024-02-28T06:26:47;18.13;;;13.63;;
9465;SDS011;4771;48.726;9.006;2024-02-28T06:29:15;18.57;;;13.60;;
9465;SDS011;4771;48.726;9.006;2024-02-28T06:31:41;18.70;;;13.30;;
9465;SDS011;4771;48.726;9.006;2024-02-28T06:34:08;20.83;;;13.03;;
9465;SDS011;4771;48.726;9.006;2024-02-28T06:36:36;20.93;;;13.50;;
9465;SDS011;4771;48.726;9.006;2024-02-28T06:39:02;20.23;;;14.10;;
9465;SDS011;4771;48.726;9.006;2024-02-28T06:41:31;16.60;;;12.83;;
9465;SDS011;4771;48.726;9.006;2024-02-28T06:43:58;19.37;;;13.63;;
9465;SDS011;4771;48.726;9.006;2024-02-28T06:46:25;20.23;;;12.53;;
9465;SDS011;4771;48.726;9.006;2024-02-28T06:48:52;19.50;;;12.40;;
9465;SDS011;4771;48.726;9.006;2024-02-28T06:51:19;18.00;;;13.47;;
9465;SDS011;4771;48.726;9.006;2024-02-28T06:53:46;17.77;;;12.47;;
9465;SDS011;4771;48.726;9.006;2024-02-28T06:56:13;16.77;;;12.77;;
9465;SDS011;4771;48.726;9.006;2024-02-28T06:58:41;17.77;;;12.97;;
9465;SDS011;4771;48.726;9.006;2024-02-28T07:01:08;19.77;;;12.93;;
9465;SDS011;4771;48.726;9.006;2024-02-28T07:03:35;18.80;;;13.43;;
9465;SDS011;4771;48.726;9.006;2024-02-28T07:06:02;18.63;;;13.13;;
9465;SDS011;4771;48.726;9.006;2024-02-28T07:08:31;20.30;;;13.73;;
9465;SDS011;4771;48.726;9.006;2024-02-28T07:10:58;19.37;;;12.90;;
9465;SDS011;4771;48.726;9.006;2024-02-28T07:13:25;21.73;;;14.70;;
9465;SDS011;4771;48.726;9.006;2024-02-28T07:15:53;19.47;;;14.40;;
9465;SDS011;4771;48.726;9.006;2024-02-28T07:18:22;17.27;;;12.97;;
9465;SDS011;4771;48.726;9.006;2024-02-28T07:20:50;18.30;;;13.47;;
9465;SDS011;4771;48.726;9.006;2024-02-28T07:23:17;18.27;;;13.30;;
9465;SDS011;4771;48.726;9.006;2024-02-28T07:25:44;17.90;;;13.07;;
9465;SDS011;4771;48.726;9.006;2024-02-28T07:28:11;20.37;;;13.83;;
9465;SDS011;4771;48.726;9.006;2024-02-28T07:30:38;19.53;;;13.03;;
9465;SDS011;4771;48.726;9.006;2024-02-28T07:33:06;18.50;;;13.10;;
9465;SDS011;4771;48.726;9.006;2024-02-28T07:35:43;18.50;;;12.70;;
9465;SDS011;4771;48.726;9.006;2024-02-28T07:38:10;21.17;;;13.17;;
9465;SDS011;4771;48.726;9.006;2024-02-28T07:40:37;17.17;;;12.90;;
9465;SDS011;4771;48.726;9.006;2024-02-28T07:43:04;18.80;;;12.63;;
9465;SDS011;4771;48.726;9.006;2024-02-28T07:45:31;19.67;;;11.97;;
9465;SDS011;4771;48.726;9.006;2024-02-28T07:47:58;16.43;;;12.50;;
9465;SDS011;4771;48.726;9.006;2024-02-28T07:50:26;16.97;;;12.30;;
9465;SDS011;4771;48.726;9.006;2024-02-28T07:52:53;20.23;;;12.13;;
9465;SDS011;4771;48.726;9.006;2024-02-28T07:55:21;15.13;;;10.93;;
9465;SDS011;4771;48.726;9.006;2024-02-28T07:57:50;15.87;;;11.97;;
9465;SDS011;4771;48.726;9.006;2024-02-28T08:00:17;16.60;;;11.40;;
9465;SDS011;4771;48.726;9.006;2024-02-28T08:02:45;17.07;;;11.53;;
9465;SDS011;4771;48.726;9.006;2024-02-28T08:05:12;14.30;;;11.30;;
9465;SDS011;4771;48.726;9.006;2024-02-28T08:07:41;15.07;;;11.30;;
9465;SDS011;4771;48.726;9.006;2024-02-28T08:10:08;17.53;;;12.23;;
9465;SDS011;4771;48.726;9.006;2024-02-28T08:12:36;16.57;;;12.10;;
9465;SDS011;4771;48.726;9.006;2024-02-28T08:15:03;17.10;;;12.20;;
9465;SDS011;4771;48.726;9.006;2024-02-28T08:17:31;17.60;;;12.23;;
9465;SDS011;4771;48.726;9.006;2024-02-28T08:19:58;15.53;;;11.63;;
9465;SDS011;4771;48.726;9.006;2024-02-28T08:22:25;16.87;;;12.43;;
9465;SDS011;4771;48.726;9.006;2024-02-28T08:24:54;16.77;;;12.60;;
9465;SDS011;4771;48.726;9.006;2024-02-28T08:27:20;18.93;;;13.20;;
9465;SDS011;4771;48.726;9.006;2024-02-28T08:29:48;16.20;;;12.00;;
9465;SDS011;4771;48.726;9.006;2024-02-28T08:32:17;14.47;;;10.20;;
9465;SDS011;4771;48.726;9.006;2024-02-28T08:34:44;14.73;;;10.33;;
9465;SDS011;4771;48.726;9.006;2024-02-28T08:37:11;14.77;;;10.77;;
9465;SDS011;4771;48.726;9.006;2024-02-28T08:39:38;13.53;;;10.60;;
9465;SDS011;4771;48.726;9.006;2024-02-28T08:42:07;14.20;;;10.33;;
9465;SDS011;4771;48.726;9.006;2024-02-28T08:44:33;13.13;;;9.57;;
9465;SDS011;4771;48.726;9.006;2024-02-28T08:47:00;12.53;;;9.13;;
9465;SDS011;4771;48.726;9.006;2024-02-28T08:49:27;14.67;;;9.53;;
9465;SDS011;4771;48.726;9.006;2024-02-28T08:51:55;12.97;;;9.73;;
9465;SDS011;4771;48.726;9.006;2024-02-28T08:54:22;14.80;;;10.13;;
9465;SDS011;4771;48.726;9.006;2024-02-28T08:56:50;15.33;;;10.43;;
9465;SDS011;4771;48.726;9.006;2024-02-28T08:59:19;13.20;;;10.20;;
9465;SDS011;4771;48.726;9.006;2024-02-28T09:01:47;13.40;;;9.90;;
9465;SDS011;4771;48.726;9.006;2024-02-28T09:04:13;13.97;;;9.93;;
9465;SDS011;4771;48.726;9.006;2024-02-28T09:06:40;11.90;;;8.63;;
9465;SDS011;4771;48.726;9.006;2024-02-28T09:09:07;13.97;;;8.30;;
9465;SDS011;4771;48.726;9.006;2024-02-28T09:11:35;11.63;;;8.53;;
9465;SDS011;4771;48.726;9.006;2024-02-28T09:14:01;12.50;;;9.53;;
9465;SDS011;4771;48.726;9.006;2024-02-28T09:16:30;12.30;;;9.70;;
9465;SDS011;4771;48.726;9.006;2024-02-28T09:18:57;13.63;;;9.70;;
9465;SDS011;4771;48.726;9.006;2024-02-28T09:21:24;14.30;;;9.90;;
9465;SDS011;4771;48.726;9.006;2024-02-28T09:23:50;12.73;;;10.37;;
9465;SDS011;4771;48.726;9.006;2024-02-28T09:26:17;14.50;;;9.83;;
9465;SDS011;4771;48.726;9.006;2024-02-28T09:28:44;13.43;;;10.10;;
9465;SDS011;4771;48.726;9.006;2024-02-28T09:31:11;13.30;;;10.40;;
9465;SDS011;4771;48.726;9.006;2024-02-28T09:33:41;15.17;;;10.30;;
9465;SDS011;4771;48.726;9.006;2024-02-28T09:36:09;15.13;;;9.83;;
9465;SDS011;4771;48.726;9.006;2024-02-28T09:38:36;13.37;;;9.80;;
9465;SDS011;4771;48.726;9.006;2024-02-28T09:41:03;15.90;;;10.83;;
9465;SDS011;4771;48.726;9.006;2024-02-28T09:43:31;14.00;;;11.13;;
9465;SDS011;4771;48.726;9.006;2024-02-28T09:46:00;13.53;;;10.47;;
9465;SDS011;4771;48.726;9.006;2024-02-28T09:48:30;14.67;;;9.73;;
9465;SDS011;4771;48.726;9.006;2024-02-28T09:50:59;14.17;;;10.63;;
9465;SDS011;4771;48.726;9.006;2024-02-28T09:53:26;13.37;;;10.30;;
9465;SDS011;4771;48.726;9.006;2024-02-28T09:55:53;14.10;;;10.23;;
9465;SDS011;4771;48.726;9.006;2024-02-28T09:58:20;15.10;;;10.23;;
9465;SDS011;4771;48.726;9.006;2024-02-28T10:00:47;12.63;;;9.97;;
9465;SDS011;4771;48.726;9.006;2024-02-28T10:03:16;15.47;;;10.20;;
9465;SDS011;4771;48.726;9.006;2024-02-28T10:05:44;13.00;;;9.73;;
9465;SDS011;4771;48.726;9.006;2024-02-28T10:08:13;12.37;;;10.27;;
9465;SDS011;4771;48.726;9.006;2024-02-28T10:10:44;15.40;;;10.13;;
9465;SDS011;4771;48.726;9.006;2024-02-28T10:13:12;15.13;;;10.27;;
9465;SDS011;4771;48.726;9.006;2024-02-28T10:15:39;16.70;;;11.00;;
9465;SDS011;4771;48.726;9.006;2024-02-28T10:18:06;17.03;;;10.13;;
9465;SDS011;4771;48.726;9.006;2024-02-28T10:20:33;15.03;;;10.83;;
9465;SDS011;4771;48.726;9.006;2024-02-28T10:23:03;14.83;;;10.33;;
9465;SDS011;4771;48.726;9.006;2024-02-28T10:25:32;14.27;;;10.30;;
9465;SDS011;4771;48.726;9.006;2024-02-28T10:27:59;18.10;;;11.07;;
9465;SDS011;4771;48.726;9.006;2024-02-28T10:30:29;15.97;;;11.27;;
9465;SDS011;4771;48.726;9.006;2024-02-28T10:32:56;16.93;;;11.63;;
9465;SDS011;4771;48.726;9.006;2024-02-28T10:35:23;14.27;;;11.37;;
9465;SDS011;4771;48.726;9.006;2024-02-28T10:37:52;13.67;;;10.30;;
9465;SDS011;4771;48.726;9.006;2024-02-28T10:40:19;12.73;;;10.17;;
9465;SDS011;4771;48.726;9.006;2024-02-28T10:42:48;13.97;;;10.87;;
9465;SDS011;4771;48.726;9.006;2024-02-28T10:45:16;14.47;;;10.73;;
9465;SDS011;4771;48.726;9.006;2024-02-28T10:47:44;15.63;;;11.40;;
9465;SDS011;4771;48.726;9.006;2024-02-28T10:50:13;15.37;;;11.00;;
9465;SDS011;4771;48.726;9.006;2024-02-28T10:52:43;15.67;;;11.27;;
9465;SDS011;4771;48.726;9.006;2024-02-28T10:55:11;16.13;;;10.90;;
9465;SDS011;4771;48.726;9.006;2024-02-28T10:57:39;16.37;;;11.47;;
9465;SDS011;4771;48.726;9.006;2024-02-28T11:00:10;15.13;;;11.03;;
9465;SDS011;4771;48.726;9.006;2024-02-28T11:02:41;14.27;;;9.97;;
9465;SDS011;4771;48.726;9.006;2024-02-28T11:05:08;13.67;;;10.00;;
9465;SDS011;4771;48.726;9.006;2024-02-28T11:07:35;12.23;;;10.30;;
9465;SDS011;4771;48.726;9.006;2024-02-28T11:10:07;14.97;;;10.40;;
9465;SDS011;4771;48.726;9.006;2024-02-28T11:12:35;13.20;;;10.70;;
9465;SDS011;4771;48.726;9.006;2024-02-28T11:15:03;16.47;;;10.93;;
9465;SDS011;4771;48.726;9.006;2024-02-28T11:17:33;17.37;;;12.53;;
9465;SDS011;4771;48.726;9.006;2024-02-28T11:19:59;18.33;;;12.17;;
9465;SDS011;4771;48.726;9.006;2024-02-28T11:22:37;14.87;;;11.50;;
9465;SDS011;4771;48.726;9.006;2024-02-28T11:25:04;15.77;;;11.77;;
9465;SDS011;4771;48.726;9.006;2024-02-28T11:27:31;17.80;;;13.33;;
9465;SDS011;4771;48.726;9.006;2024-02-28T11:29:58;15.97;;;12.50;;
9465;SDS011;4771;48.726;9.006;2024-02-28T11:32:26;15.83;;;11.40;;
9465;SDS011;4771;48.726;9.006;2024-02-28T11:34:58;15.10;;;11.10;;
9465;SDS011;4771;48.726;9.006;2024-02-28T11:37:27;15.80;;;11.60;;
9465;SDS011;4771;48.726;9.006;2024-02-28T11:39:54;14.00;;;11.07;;
9465;SDS011;4771;48.726;9.006;2024-02-28T11:42:21;16.03;;;10.60;;
9465;SDS011;4771;48.726;9.006;2024-02-28T11:44:52;15.57;;;11.20;;
9465;SDS011;4771;48.726;9.006;2024-02-28T11:47:20;15.40;;;10.93;;
9465;SDS011;4771;48.726;9.006;2024-02-28T11:49:48;14.30;;;10.63;;
9465;SDS011;4771;48.726;9.006;2024-02-28T11:52:17;16.03;;;11.60;;
9465;SDS011;4771;48.726;9.006;2024-02-28T11:54:44;14.47;;;11.30;;
9465;SDS011;4771;48.726;9.006;2024-02-28T11:57:11;15.70;;;11.40;;
9465;SDS011;4771;48.726;9.006;2024-02-28T11:59:43;16.70;;;11.07;;
9465;SDS011;4771;48.726;9.006;2024-02-28T12:02:13;15.03;;;11.23;;
9465;SDS011;4771;48.726;9.006;2024-02-28T12:04:41;15.83;;;11.10;;
9465;SDS011;4771;48.726;9.006;2024-02-28T12:07:08;13.90;;;11.10;;
9465;SDS011;4771;48.726;9.006;2024-02-28T12:09:37;18.13;;;12.40;;
9465;SDS011;4771;48.726;9.006;2024-02-28T12:12:06;13.83;;;10.83;;
9465;SDS011;4771;48.726;9.006;2024-02-28T12:14:36;17.90;;;11.67;;
9465;SDS011;4771;48.726;9.006;2024-02-28T12:17:03;15.70;;;11.63;;
9465;SDS011;4771;48.726;9.006;2024-02-28T12:19:30;15.07;;;11.27;;
9465;SDS011;4771;48.726;9.006;2024-02-28T12:21:57;14.50;;;11.53;;
9465;SDS011;4771;48.726;9.006;2024-02-28T12:24:24;14.83;;;10.67;;
9465;SDS011;4771;48.726;9.006;2024-02-28T12:26:52;17.73;;;12.37;;
9465;SDS011;4771;48.726;9.006;2024-02-28T12:29:19;18.03;;;11.90;;
9465;SDS011;4771;48.726;9.006;2024-02-28T12:31:46;16.70;;;11.43;;
9465;SDS011;4771;48.726;9.006;2024-02-28T12:34:13;16.25;;;11.43;;
9465;SDS011;4771;48.726;9.006;2024-02-28T12:36:40;17.50;;;12.13;;
9465;SDS011;4771;48.726;9.006;2024-02-28T12:39:07;15.60;;;12.07;;
9465;SDS011;4771;48.726;9.006;2024-02-28T12:41:36;16.20;;;11.53;;
9465;SDS011;4771;48.726;9.006;2024-02-28T12:44:05;14.77;;;10.87;;
9465;SDS011;4771;48.726;9.006;2024-02-28T12:46:32;14.80;;;10.63;;
9465;SDS011;4771;48.726;9.006;2024-02-28T12:48:59;17.00;;;12.03;;
9465;SDS011;4771;48.726;9.006;2024-02-28T12:51:36;15.30;;;11.33;;
9465;SDS011;4771;48.726;9.006;2024-02-28T12:54:05;16.30;;;11.37;;
9465;SDS011;4771;48.726;9.006;2024-02-28T12:56:32;18.27;;;12.03;;
9465;SDS011;4771;48.726;9.006;2024-02-28T12:58:59;17.27;;;11.80;;
9465;SDS011;4771;48.726;9.006;2024-02-28T13:01:28;17.17;;;12.03;;
9465;SDS011;4771;48.726;9.006;2024-02-28T13:03:55;16.47;;;12.60;;
9465;SDS011;4771;48.726;9.006;2024-02-28T13:06:22;16.87;;;12.50;;
9465;SDS011;4771;48.726;9.006;2024-02-28T13:08:50;17.57;;;12.73;;
9465;SDS011;4771;48.726;9.006;2024-02-28T13:11:17;19.13;;;12.90;;
9465;SDS011;4771;48.726;9.006;2024-02-28T13:13:45;16.67;;;12.07;;
9465;SDS011;4771;48.726;9.006;2024-02-28T13:16:12;19.03;;;12.60;;
9465;SDS011;4771;48.726;9.006;2024-02-28T13:18:41;17.53;;;12.17;;
9465;SDS011;4771;48.726;9.006;2024-02-28T13:21:08;16.47;;;12.03;;
9465;SDS011;4771;48.726;9.006;2024-02-28T13:23:35;16.67;;;12.30;;
9465;SDS011;4771;48.726;9.006;2024-02-28T13:26:02;18.60;;;13.07;;
9465;SDS011;4771;48.726;9.006;2024-02-28T13:28:30;17.30;;;12.30;;
9465;SDS011;4771;48.726;9.006;2024-02-28T13:30:57;17.30;;;12.80;;
9465;SDS011;4771;48.726;9.006;2024-02-28T13:33:24;15.53;;;11.57;;
9465;SDS011;4771;48.726;9.006;2024-02-28T13:35:53;19.13;;;12.73;;
9465;SDS011;4771;48.726;9.006;2024-02-28T13:38:20;17.20;;;12.03;;
9465;SDS011;4771;48.726;9.006;2024-02-28T13:40:47;21.10;;;12.40;;
9465;SDS011;4771;48.726;9.006;2024-02-28T13:43:14;19.30;;;12.77;;
9465;SDS011;4771;48.726;9.006;2024-02-28T13:45:45;20.83;;;13.17;;
9465;SDS011;4771;48.726;9.006;2024-02-28T13:48:15;16.60;;;12.60;;
9465;SDS011;4771;48.726;9.006;2024-02-28T13:50:43;18.97;;;13.23;;
9465;SDS011;4771;48.726;9.006;2024-02-28T13:53:11;17.90;;;12.83;;
9465;SDS011;4771;48.726;9.006;2024-02-28T13:55:39;17.67;;;12.47;;
9465;SDS011;4771;48.726;9.006;2024-02-28T13:58:06;15.80;;;11.77;;
9465;SDS011;4771;48.726;9.006;2024-02-28T14:00:33;16.77;;;12.10;;
9465;SDS011;4771;48.726;9.006;2024-02-28T14:03:00;18.63;;;11.80;;
9465;SDS011;4771;48.726;9.006;2024-02-28T14:05:27;16.67;;;12.07;;
9465;SDS011;4771;48.726;9.006;2024-02-28T14:07:54;16.73;;;12.00;;
9465;SDS011;4771;48.726;9.006;2024-02-28T14:10:23;16.53;;;11.17;;
9465;SDS011;4771;48.726;9.006;2024-02-28T14:12:50;17.40;;;12.37;;
9465;SDS011;4771;48.726;9.006;2024-02-28T14:15:18;15.90;;;11.80;;
9465;SDS011;4771;48.726;9.006;2024-02-28T14:17:45;15.93;;;11.83;;
9465;SDS011;4771;48.726;9.006;2024-02-28T14:20:12;16.03;;;11.93;;
9465;SDS011;4771;48.726;9.006;2024-02-28T14:22:39;15.23;;;11.33;;
9465;SDS011;4771;48.726;9.006;2024-02-28T14:25:07;17.77;;;12.10;;
9465;SDS011;4771;48.726;9.006;2024-02-28T14:27:38;17.37;;;12.00;;
9465;SDS011;4771;48.726;9.006;2024-02-28T14:30:08;17.20;;;12.33;;
9465;SDS011;4771;48.726;9.006;2024-02-28T14:32:35;18.73;;;12.53;;
9465;SDS011;4771;48.726;9.006;2024-02-28T14:35:03;17.80;;;12.73;;
9465;SDS011;4771;48.726;9.006;2024-02-28T14:37:31;17.37;;;11.73;;
9465;SDS011;4771;48.726;9.006;2024-02-28T14:39:58;18.97;;;12.43;;
9465;SDS011;4771;48.726;9.006;2024-02-28T14:42:26;20.00;;;12.43;;
9465;SDS011;4771;48.726;9.006;2024-02-28T14:44:54;17.60;;;12.43;;
9465;SDS011;4771;48.726;9.006;2024-02-28T14:47:21;15.27;;;11.33;;
9465;SDS011;4771;48.726;9.006;2024-02-28T14:49:48;15.80;;;11.97;;